Time;durP1;ratioP1;P1;durP2;ratioP2;P2;SDS_P1;SDS_P2;PMS_P1;PMS_P2;Temp;Humidity;BMP_temperature;BMP_pressure;BME280_temperature;BME280_humidity;BME280_pressure;Samples;Min_cycle;Max_cycle;Signal;HPM_P1;HPM_P2
2021/04/14 00:03:53;;;;;;;1.20;0.55;;;17.40;53.90;;;;;;10480095;28;20028;-61
2021/04/14 00:08:54;;;;;;;2.05;0.45;;;17.50;53.80;;;;;;10485098;28;20100;-62
2021/04/14 00:13:54;;;;;;;0.60;0.35;;;17.50;53.80;;;;;;10502160;28;20708;-62
2021/04/14 00:18:55;;;;;;;1.52;0.55;;;17.50;53.80;;;;;;10502563;28;20488;-62
2021/04/14 00:23:56;;;;;;;0.80;0.50;;;17.50;53.70;;;;;;10502166;28;20396;-61
2021/04/14 00:28:57;;;;;;;0.70;0.35;;;17.50;53.80;;;;;;10501632;28;20058;-61
2021/04/14 00:33:57;;;;;;;0.75;0.30;;;17.50;53.70;;;;;;10473014;28;20039;-61
2021/04/14 00:38:58;;;;;;;0.70;0.50;;;17.50;53.70;;;;;;10501100;28;20456;-61
2021/04/14 00:44:00;;;;;;;0.50;0.20;;;17.50;53.60;;;;;;10483654;28;20484;-61
2021/04/14 00:49:01;;;;;;;0.52;0.30;;;17.50;53.70;;;;;;10501486;28;20039;-61
2021/04/14 00:54:02;;;;;;;1.08;0.70;;;17.50;53.60;;;;;;10500785;28;20564;-62
2021/04/14 00:59:02;;;;;;;0.75;0.50;;;17.50;53.60;;;;;;10499988;28;20107;-62
2021/04/14 01:04:04;;;;;;;1.33;0.50;;;17.50;53.60;;;;;;10479606;28;20119;-61
2021/04/14 01:09:04;;;;;;;1.15;0.40;;;17.50;53.60;;;;;;10500544;28;20040;-61
2021/04/14 01:14:06;;;;;;;0.65;0.30;;;17.50;53.60;;;;;;10500259;28;20499;-62
2021/04/14 01:19:07;;;;;;;0.57;0.43;;;17.50;53.50;;;;;;10513326;28;20031;-62
2021/04/14 01:24:13;;;;;;;0.95;0.40;;;17.40;53.40;;;;;;10482503;28;20032;-63
2021/04/14 01:29:14;;;;;;;0.70;0.30;;;17.50;53.40;;;;;;10481684;28;20090;-61
2021/04/14 01:34:17;;;;;;;2.35;0.50;;;17.50;53.40;;;;;;10473069;28;20082;-61
2021/04/14 01:39:18;;;;;;;0.77;0.35;;;17.50;53.40;;;;;;10464369;28;20055;-61
2021/04/14 01:44:19;;;;;;;0.60;0.35;;;17.50;53.40;;;;;;10481110;28;20025;-61
2021/04/14 01:49:19;;;;;;;0.65;0.47;;;17.50;53.30;;;;;;10480237;28;20036;-61
2021/04/14 01:54:20;;;;;;;0.77;0.47;;;17.50;53.30;;;;;;10481085;28;20039;-61
2021/04/14 01:59:21;;;;;;;0.52;0.35;;;17.50;53.30;;;;;;10479955;28;20483;-61
2021/04/14 02:04:21;;;;;;;0.30;0.30;;;17.50;53.40;;;;;;10498290;28;20086;-61
2021/04/14 02:09:22;;;;;;;0.68;0.45;;;17.50;53.30;;;;;;10497852;28;20107;-61
2021/04/14 02:14:23;;;;;;;1.05;0.55;;;17.50;53.30;;;;;;10498083;28;20028;-61
2021/04/14 02:19:24;;;;;;;0.63;0.63;;;17.40;53.30;;;;;;10497593;28;20035;-61
2021/04/14 02:24:24;;;;;;;0.20;0.20;;;17.40;53.20;;;;;;10497709;28;20040;-61
2021/04/14 02:29:25;;;;;;;0.50;0.30;;;17.40;53.30;;;;;;10478924;28;20028;-61
2021/04/14 02:34:26;;;;;;;0.80;0.50;;;17.50;53.20;;;;;;10497314;28;20107;-61
2021/04/14 02:39:26;;;;;;;1.27;0.50;;;17.40;53.20;;;;;;10496601;28;20049;-61
2021/04/14 02:44:27;;;;;;;0.30;0.30;;;17.50;53.20;;;;;;10479466;28;20052;-61
2021/04/14 02:49:28;;;;;;;1.10;0.43;;;17.50;53.10;;;;;;10496897;28;20107;-62
2021/04/14 02:54:29;;;;;;;0.77;0.40;;;17.50;53.00;;;;;;10479107;28;20111;-62
2021/04/14 02:59:29;;;;;;;0.63;0.40;;;17.50;53.00;;;;;;10495977;28;20036;-62
2021/04/14 03:04:30;;;;;;;1.55;0.80;;;17.50;53.00;;;;;;10478799;28;20029;-61
2021/04/14 03:09:32;;;;;;;0.57;0.22;;;17.50;53.00;;;;;;10496657;28;20029;-61
2021/04/14 03:14:33;;;;;;;0.68;0.43;;;17.50;53.00;;;;;;10496903;28;20032;-62
2021/04/14 03:19:34;;;;;;;0.40;0.30;;;17.50;52.90;;;;;;10496244;28;20033;-61
2021/04/14 03:24:35;;;;;;;1.25;0.50;;;17.50;53.60;;;;;;10504407;28;20033;-61
2021/04/14 03:29:36;;;;;;;1.42;0.43;;;17.40;52.90;;;;;;10485812;28;20074;-61
2021/04/14 03:34:37;;;;;;;0.30;0.30;;;17.50;52.90;;;;;;10486218;28;20064;-62
2021/04/14 03:39:38;;;;;;;0.40;0.30;;;17.50;52.90;;;;;;10479157;28;20051;-61
2021/04/14 03:44:38;;;;;;;0.80;0.38;;;17.50;52.80;;;;;;10485916;28;20075;-61
2021/04/14 03:49:39;;;;;;;0.75;0.40;;;17.50;52.70;;;;;;10485077;28;20020;-62
2021/04/14 03:54:40;;;;;;;0.35;0.28;;;17.50;52.70;;;;;;10485639;28;20108;-61
2021/04/14 03:59:41;;;;;;;0.88;0.50;;;17.50;52.80;;;;;;10502933;28;20116;-61
2021/04/14 04:04:42;;;;;;;0.35;0.32;;;17.50;52.70;;;;;;10502825;28;20029;-61
2021/04/14 04:09:42;;;;;;;1.23;0.50;;;17.50;52.70;;;;;;10484348;28;20031;-62
2021/04/14 04:14:48;;;;;;;0.57;0.35;;;17.50;52.70;;;;;;10484866;28;20119;-61
2021/04/14 04:19:49;;;;;;;0.55;0.30;;;17.40;52.60;;;;;;10485443;28;20052;-61
2021/04/14 04:24:50;;;;;;;0.88;0.45;;;17.40;52.60;;;;;;10502417;28;20039;-61
2021/04/14 04:29:51;;;;;;;0.60;0.38;;;17.50;52.60;;;;;;10502157;28;20032;-62
2021/04/14 04:34:52;;;;;;;1.63;0.38;;;17.50;52.50;;;;;;10500287;28;20085;-61
2021/04/14 04:39:52;;;;;;;0.60;0.40;;;17.50;52.40;;;;;;10501038;28;20501;-61
2021/04/14 04:44:53;;;;;;;0.55;0.30;;;17.50;52.50;;;;;;10480849;28;20029;-61
2021/04/14 04:49:54;;;;;;;0.35;0.35;;;17.50;52.40;;;;;;10499367;28;20307;-62
2021/04/14 04:54:55;;;;;;;0.45;0.35;;;17.50;52.40;;;;;;10501303;28;20107;-62
2021/04/14 04:59:56;;;;;;;2.13;0.75;;;17.50;52.40;;;;;;10486536;28;20032;-61
2021/04/14 05:04:57;;;;;;;2.35;0.60;;;17.50;52.70;;;;;;10474167;28;20028;-62
2021/04/14 05:09:57;;;;;;;1.65;0.90;;;17.50;53.50;;;;;;10481868;28;20028;-58
2021/04/14 05:14:58;;;;;;;10.00;0.70;;;17.50;55.30;;;;;;10481721;28;20044;-60
2021/04/14 05:19:59;;;;;;;2.50;0.68;;;17.60;54.50;;;;;;10498918;28;20040;-61
2021/04/14 05:25:00;;;;;;;5.10;0.85;;;17.50;55.60;;;;;;10498945;28;20032;-61
2021/04/14 05:30:01;;;;;;;12.48;0.85;;;17.60;55.90;;;;;;10499504;28;20035;-61
2021/04/14 05:35:02;;;;;;;6.70;0.95;;;17.60;56.00;;;;;;10499088;28;20028;-61
2021/04/14 05:40:05;;;;;;;8.27;1.60;;;17.60;56.10;;;;;;10481404;28;20040;-61
2021/04/14 05:45:09;;;;;;;15.32;1.52;;;17.60;55.40;;;;;;10479924;28;20028;-60
2021/04/14 05:50:16;;;;;;;14.00;1.98;;;17.60;55.30;;;;;;10470987;28;20416;-57
2021/04/14 05:55:19;;;;;;;7.68;1.83;;;17.50;56.00;;;;;;10494980;28;20115;-57
2021/04/14 06:00:21;;;;;;;7.75;1.55;;;17.50;56.10;;;;;;10498557;28;20024;-59
2021/04/14 06:05:25;;;;;;;13.00;1.60;;;17.50;55.40;;;;;;10497723;28;20028;-57
2021/04/14 06:10:26;;;;;;;11.05;2.08;;;17.40;55.10;;;;;;10493361;28;20025;-58
2021/04/14 06:15:32;;;;;;;8.18;1.50;;;17.40;54.60;;;;;;10492852;28;20425;-57
2021/04/14 06:20:34;;;;;;;6.45;1.13;;;17.50;54.30;;;;;;10495605;28;20178;-57
2021/04/14 06:25:53;;;;;;;11.98;1.73;;;17.50;54.00;;;;;;10495616;28;20028;-57
2021/04/14 06:30:55;;;;;;;4.07;1.10;;;17.50;53.90;;;;;;10484496;28;20291;-57
2021/04/14 06:35:56;;;;;;;3.05;1.20;;;17.50;53.80;;;;;;10491027;28;20021;-61
2021/04/14 06:46:34;;;;;;;11.77;1.73;;;17.60;54.20;;;;;;10496896;28;20090;-57
2021/04/14 06:51:59;;;;;;;4.07;1.50;;;17.60;54.50;;;;;;10479247;28;20098;-57
2021/04/14 06:57:07;;;;;;;7.70;1.25;;;17.60;54.60;;;;;;10496100;28;20052;-58
2021/04/14 07:02:19;;;;;;;15.27;2.85;;;17.50;54.60;;;;;;10496056;28;20039;-58
2021/04/14 07:07:25;;;;;;;13.05;1.73;;;17.50;54.70;;;;;;10479261;28;20036;-58
2021/04/14 07:12:26;;;;;;;6.95;1.50;;;17.40;54.90;;;;;;10475272;28;20033;-58
2021/04/14 07:18:09;;;;;;;10.25;1.55;;;17.40;54.80;;;;;;10475743;28;20051;-58
2021/04/14 07:23:31;;;;;;;8.88;2.13;;;17.30;54.80;;;;;;10474541;28;20131;-57
2021/04/14 07:28:51;;;;;;;5.30;1.52;;;17.40;55.30;;;;;;10488955;28;20043;-58
2021/04/14 07:34:29;;;;;;;9.70;2.65;;;17.40;55.00;;;;;;10487567;28;20094;-58
2021/04/14 07:39:58;;;;;;;9.35;1.50;;;17.30;54.80;;;;;;10455054;28;20057;-58
2021/04/14 07:45:14;;;;;;;5.78;1.48;;;17.30;54.80;;;;;;10489027;28;20031;-56
2021/04/14 07:50:16;;;;;;;12.77;2.17;;;17.40;55.10;;;;;;10484123;28;21389;-58
2021/04/14 07:55:28;;;;;;;15.15;2.40;;;17.40;55.30;;;;;;10479930;28;20035;-56
2021/04/14 08:00:43;;;;;;;13.55;2.00;;;17.40;55.80;;;;;;10487442;28;20071;-56
2021/04/14 08:05:44;;;;;;;12.55;2.17;;;17.40;55.60;;;;;;10488447;28;20035;-56
2021/04/14 08:11:12;;;;;;;16.85;3.40;;;17.40;56.00;;;;;;10495443;28;20036;-56
2021/04/14 08:16:35;;;;;;;16.17;3.00;;;17.40;56.40;;;;;;10495914;28;20024;-55
2021/04/14 08:22:17;;;;;;;11.57;1.92;;;17.40;57.10;;;;;;10472045;28;20381;-56
2021/04/14 08:27:46;;;;;;;17.13;2.35;;;17.40;57.70;;;;;;10492168;28;20101;-57
2021/04/14 08:32:52;;;;;;;11.68;2.50;;;17.40;57.80;;;;;;10495026;28;20029;-48
2021/04/14 08:38:06;;;;;;;11.68;2.20;;;17.40;56.90;;;;;;10494955;28;20048;-48
2021/04/14 08:43:13;;;;;;;14.60;2.20;;;17.40;57.30;;;;;;10472713;28;20055;-51
2021/04/14 08:48:35;;;;;;;12.57;3.05;;;17.40;57.80;;;;;;10469115;28;20036;-49
2021/04/14 08:53:39;;;;;;;17.50;2.38;;;17.30;57.20;;;;;;10492384;28;20036;-47
2021/04/14 08:58:41;;;;;;;13.13;2.20;;;17.30;57.20;;;;;;10459820;28;20040;-55
2021/04/14 09:03:46;;;;;;;7.70;1.73;;;17.30;57.20;;;;;;10476057;28;20032;-52
2021/04/14 09:08:50;;;;;;;10.75;2.13;;;17.30;56.90;;;;;;10493713;28;20029;-52
2021/04/14 09:14:05;;;;;;;13.38;2.40;;;17.20;56.60;;;;;;10493160;28;20024;-49
2021/04/14 09:19:19;;;;;;;10.10;2.13;;;17.30;56.60;;;;;;10467878;28;20477;-50
2021/04/14 09:24:50;;;;;;;10.52;2.30;;;17.30;56.60;;;;;;10475970;28;20036;-53
2021/04/14 09:30:30;;;;;;;11.68;2.90;;;17.30;56.50;;;;;;10474591;28;20038;-55
2021/04/14 09:35:30;;;;;;;7.50;1.70;;;17.30;56.20;;;;;;10492371;28;20033;-52
2021/04/14 09:40:35;;;;;;;10.10;2.15;;;17.20;55.70;;;;;;10491819;28;20405;-53
2021/04/14 09:45:37;;;;;;;9.48;2.92;;;17.20;55.90;;;;;;10483981;28;20119;-54
2021/04/14 09:50:42;;;;;;;8.85;2.65;;;17.20;56.00;;;;;;10492058;28;20147;-54
2021/04/14 09:56:20;;;;;;;8.32;2.53;;;17.20;55.50;;;;;;10491637;28;20509;-52
2021/04/14 10:01:33;;;;;;;8.13;2.42;;;17.30;55.30;;;;;;10443084;28;20080;-51
2021/04/14 10:06:35;;;;;;;12.88;2.53;;;17.30;55.60;;;;;;10460604;28;20037;-52
2021/04/14 10:11:39;;;;;;;9.60;2.28;;;17.30;55.30;;;;;;10464071;28;20033;-51
2021/04/14 10:16:41;;;;;;;9.38;2.08;;;17.30;55.50;;;;;;10489872;28;20032;-53
2021/04/14 10:21:43;;;;;;;7.32;2.17;;;17.30;55.50;;;;;;10490039;28;20859;-54
2021/04/14 10:27:02;;;;;;;8.70;1.85;;;17.30;55.70;;;;;;10464807;28;20542;-55
2021/04/14 10:32:03;;;;;;;6.05;1.98;;;17.30;56.00;;;;;;10489552;28;20032;-54
2021/04/14 10:37:14;;;;;;;8.10;2.45;;;17.30;56.10;;;;;;10471821;28;20036;-55
2021/04/14 10:42:18;;;;;;;7.65;1.60;;;17.30;57.00;;;;;;10490218;28;20897;-51
2021/04/14 10:47:28;;;;;;;8.13;2.08;;;17.30;56.50;;;;;;10472122;28;20389;-51
2021/04/14 10:52:29;;;;;;;3.42;1.60;;;17.30;57.30;;;;;;10472190;28;20037;-50
2021/04/14 10:57:33;;;;;;;5.32;1.52;;;17.30;56.60;;;;;;10490175;28;20033;-47
2021/04/14 11:02:38;;;;;;;8.95;2.10;;;17.30;56.70;;;;;;10472202;28;20076;-53
2021/04/14 11:07:41;;;;;;;12.07;1.83;;;17.30;56.90;;;;;;10489333;28;20102;-53
2021/04/14 11:12:48;;;;;;;6.63;1.42;;;17.30;56.80;;;;;;10468090;28;20036;-54
2021/04/14 11:17:58;;;;;;;4.70;1.55;;;17.20;56.90;;;;;;10465146;28;20115;-55
2021/04/14 11:22:59;;;;;;;6.38;1.92;;;17.20;56.70;;;;;;10465369;28;20032;-54
2021/04/14 11:28:16;;;;;;;6.75;1.65;;;17.20;56.60;;;;;;10494321;28;20040;-52
2021/04/14 11:33:19;;;;;;;7.18;1.40;;;17.10;56.50;;;;;;10479071;28;20090;-55
2021/04/14 11:38:40;;;;;;;4.05;1.35;;;17.10;56.60;;;;;;10486814;28;20068;-53
2021/04/14 11:43:42;;;;;;;8.15;2.13;;;17.00;56.60;;;;;;10491438;28;20046;-53
2021/04/14 11:48:56;;;;;;;7.57;3.10;;;17.00;56.70;;;;;;10494990;28;20044;-55
2021/04/14 11:54:26;;;;;;;4.60;1.83;;;17.00;56.70;;;;;;10484409;28;20101;-55
2021/04/14 11:59:34;;;;;;;5.72;1.27;;;17.00;56.80;;;;;;10490865;28;20043;-55
2021/04/14 12:04:35;;;;;;;3.90;1.38;;;17.00;56.70;;;;;;10477578;28;20400;-55
2021/04/14 12:09:35;;;;;;;6.13;1.70;;;17.10;56.60;;;;;;10478067;28;20036;-55
2021/04/14 12:14:36;;;;;;;4.57;1.58;;;17.00;56.50;;;;;;10495628;28;20041;-55
2021/04/14 12:19:38;;;;;;;3.85;1.42;;;17.00;56.60;;;;;;10495633;28;20039;-56
2021/04/14 12:24:45;;;;;;;7.50;1.67;;;17.00;56.60;;;;;;10493544;28;20571;-54
2021/04/14 12:29:46;;;;;;;12.27;2.85;;;17.10;56.10;;;;;;10492126;28;20037;-52
2021/04/14 12:34:47;;;;;;;8.82;1.73;;;17.10;56.20;;;;;;10476758;28;20040;-53
2021/04/14 12:39:48;;;;;;;8.15;2.65;;;17.20;56.40;;;;;;10476150;28;20048;-52
2021/04/14 12:44:55;;;;;;;9.55;2.85;;;17.20;56.90;;;;;;10494271;28;20029;-53
2021/04/14 12:49:56;;;;;;;13.32;3.97;;;17.30;57.10;;;;;;10494679;28;20392;-49
2021/04/14 12:54:57;;;;;;;6.88;2.35;;;17.40;56.80;;;;;;10491840;28;20039;-53
2021/04/14 13:00:05;;;;;;;10.65;2.88;;;17.30;57.00;;;;;;10493117;28;20031;-54
2021/04/14 13:05:11;;;;;;;19.73;3.63;;;17.40;57.70;;;;;;10493760;28;20072;-53
2021/04/14 13:10:13;;;;;;;10.48;2.60;;;17.40;58.60;;;;;;10493323;28;20116;-55
2021/04/14 13:15:30;;;;;;;18.48;3.58;;;17.30;58.00;;;;;;10473062;28;20054;-55
2021/04/14 13:20:31;;;;;;;14.60;2.47;;;17.30;57.90;;;;;;10476471;28;20028;-49
2021/04/14 13:25:59;;;;;;;12.05;2.30;;;17.20;57.20;;;;;;10499262;28;20035;-54
2021/04/14 13:31:22;;;;;;;9.40;2.00;;;17.10;57.20;;;;;;10482671;28;20063;-50
2021/04/14 13:36:43;;;;;;;6.30;1.63;;;17.10;57.20;;;;;;10475784;28;20020;-53
2021/04/14 13:41:51;;;;;;;7.15;1.90;;;17.00;57.30;;;;;;10496247;28;20045;-53
2021/04/14 13:47:20;;;;;;;5.82;1.52;;;17.10;58.00;;;;;;10479483;28;20388;-54
2021/04/14 13:52:27;;;;;;;6.53;1.85;;;17.10;57.20;;;;;;10451789;28;20072;-53
2021/04/14 13:57:37;;;;;;;8.23;2.22;;;17.10;57.00;;;;;;10481233;28;20032;-50
2021/04/14 14:02:45;;;;;;;4.40;1.30;;;17.10;56.90;;;;;;10475063;28;20134;-52
2021/04/14 14:08:16;;;;;;;4.28;1.50;;;17.10;56.80;;;;;;10480481;28;20079;-51
2021/04/14 14:13:26;;;;;;;6.95;1.55;;;17.10;56.80;;;;;;10497945;28;20066;-53
2021/04/14 14:18:26;;;;;;;4.50;1.42;;;17.00;56.80;;;;;;10469981;28;20028;-50
2021/04/14 14:23:29;;;;;;;4.20;1.40;;;17.00;56.80;;;;;;10476054;28;20037;-50
2021/04/14 14:28:30;;;;;;;5.18;1.48;;;17.00;56.80;;;;;;10484771;28;20041;-50
2021/04/14 14:33:37;;;;;;;3.95;1.40;;;17.00;56.80;;;;;;10490228;28;20481;-51
2021/04/14 14:38:45;;;;;;;2.72;1.30;;;17.00;56.90;;;;;;10470419;28;20048;-52
2021/04/14 14:43:53;;;;;;;8.73;1.58;;;17.10;56.70;;;;;;10487305;28;20040;-52
2021/04/14 14:48:59;;;;;;;3.80;1.17;;;17.00;56.50;;;;;;10466643;28;20451;-52
2021/04/14 14:54:04;;;;;;;5.57;1.30;;;17.00;56.60;;;;;;10450974;28;20033;-52
2021/04/14 14:59:28;;;;;;;5.38;1.30;;;16.90;56.50;;;;;;10472127;28;20119;-51
2021/04/14 15:04:29;;;;;;;11.13;1.98;;;16.90;56.60;;;;;;10473523;28;20032;-49
2021/04/14 15:09:29;;;;;;;13.00;2.10;;;16.90;57.10;;;;;;10471946;28;20442;-51
2021/04/14 15:14:30;;;;;;;13.18;3.00;;;17.00;57.20;;;;;;10488506;28;20791;-48
2021/04/14 15:19:31;;;;;;;14.45;2.53;;;17.00;57.20;;;;;;10494892;28;20032;-52
2021/04/14 15:24:32;;;;;;;19.45;3.47;;;17.10;57.20;;;;;;10471816;28;20033;-52
2021/04/14 15:29:36;;;;;;;19.75;2.80;;;17.10;57.30;;;;;;10487679;28;20127;-52
2021/04/14 15:34:37;;;;;;;15.43;2.28;;;17.10;57.50;;;;;;10496885;28;20064;-51
2021/04/14 15:39:39;;;;;;;13.30;2.08;;;17.00;56.70;;;;;;10488606;28;20124;-53
2021/04/14 15:44:39;;;;;;;10.65;2.33;;;17.10;56.10;;;;;;10470435;28;20037;-51
2021/04/14 15:49:40;;;;;;;8.15;2.30;;;17.10;55.70;;;;;;10460634;28;20476;-51
2021/04/14 15:54:41;;;;;;;7.18;1.52;;;17.20;55.10;;;;;;10494664;28;20040;-53
2021/04/14 15:59:41;;;;;;;17.98;6.35;;;17.20;55.00;;;;;;10495489;28;20107;-50
2021/04/14 16:04:44;;;;;;;27.50;5.43;;;17.20;55.00;;;;;;10494924;28;20065;-49
2021/04/14 16:09:49;;;;;;;14.38;3.88;;;17.30;54.90;;;;;;10495220;28;20036;-48
2021/04/14 16:14:50;;;;;;;22.67;5.63;;;17.40;54.30;;;;;;10469456;28;20399;-49
2021/04/14 16:19:52;;;;;;;23.88;5.57;;;17.50;57.10;;;;;;10491666;28;20027;-49
2021/04/14 16:24:53;;;;;;;14.25;4.32;;;17.50;57.90;;;;;;10474676;28;20480;-49
2021/04/14 16:29:57;;;;;;;14.32;4.15;;;17.60;57.80;;;;;;10495389;28;20111;-52
2021/04/14 16:34:59;;;;;;;10.13;3.60;;;17.60;59.10;;;;;;10495302;28;20400;-53
2021/04/14 16:40:00;;;;;;;12.45;3.33;;;17.70;59.40;;;;;;10494503;28;20029;-53
2021/04/14 16:45:00;;;;;;;13.10;4.28;;;17.70;58.80;;;;;;10494524;28;20036;-55
2021/04/14 16:50:01;;;;;;;17.35;4.07;;;17.80;58.80;;;;;;10494979;28;20025;-55
2021/04/14 16:55:05;;;;;;;15.80;4.53;;;17.80;59.10;;;;;;10508594;28;20040;-53
2021/04/14 17:00:09;;;;;;;15.15;3.50;;;17.70;58.60;;;;;;10493108;28;20031;-53
2021/04/14 17:05:11;;;;;;;10.80;3.28;;;17.70;58.50;;;;;;10493338;28;20032;-53
2021/04/14 17:10:13;;;;;;;22.27;4.07;;;17.60;58.50;;;;;;10493155;28;20032;-53
2021/04/14 17:15:14;;;;;;;13.55;3.13;;;17.50;59.20;;;;;;10493510;28;20125;-53
2021/04/14 17:20:16;;;;;;;13.52;3.05;;;17.50;58.50;;;;;;10493765;28;20499;-51
2021/04/14 17:25:17;;;;;;;12.45;3.38;;;17.50;58.60;;;;;;10492823;28;20040;-55
2021/04/14 17:30:25;;;;;;;11.38;3.03;;;17.40;58.50;;;;;;10491716;28;20102;-54
2021/04/14 17:35:27;;;;;;;7.10;2.53;;;17.40;59.30;;;;;;10491133;28;20032;-55
2021/04/14 17:40:31;;;;;;;12.60;3.15;;;17.40;59.50;;;;;;10490394;28;20412;-56
2021/04/14 17:45:32;;;;;;;9.38;3.22;;;17.40;59.00;;;;;;10489307;28;20064;-55
2021/04/14 17:50:34;;;;;;;8.68;2.83;;;17.30;58.90;;;;;;10489778;28;20040;-56
2021/04/14 17:55:36;;;;;;;13.68;2.78;;;17.30;58.60;;;;;;10490644;28;20115;-55
2021/04/14 18:00:40;;;;;;;8.55;2.28;;;17.30;59.10;;;;;;10470477;28;20377;-55
2021/04/14 18:05:40;;;;;;;10.13;2.67;;;17.30;60.10;;;;;;10490628;28;20036;-55
2021/04/14 18:10:41;;;;;;;10.73;2.42;;;17.30;60.20;;;;;;10466788;28;20119;-55
2021/04/14 18:15:42;;;;;;;8.77;2.97;;;17.40;60.00;;;;;;10490202;28;20052;-55
2021/04/14 18:20:43;;;;;;;10.38;3.22;;;17.40;60.20;;;;;;10490423;28;20471;-54
2021/04/14 18:25:44;;;;;;;4.70;1.80;;;17.30;59.30;;;;;;10462650;28;20119;-55
2021/04/14 18:30:46;;;;;;;7.90;2.15;;;17.40;59.20;;;;;;10472244;28;20032;-54
2021/04/14 18:35:47;;;;;;;8.40;1.95;;;17.40;59.30;;;;;;10490566;28;20039;-50
2021/04/14 18:40:48;;;;;;;8.82;2.05;;;17.40;59.10;;;;;;10472458;28;20073;-52
2021/04/14 18:45:49;;;;;;;9.88;2.13;;;17.40;59.30;;;;;;10490193;28;20737;-53
2021/04/14 18:50:50;;;;;;;7.57;1.92;;;17.40;59.60;;;;;;10484832;28;20118;-54
2021/04/14 18:55:51;;;;;;;13.70;2.75;;;17.40;59.40;;;;;;10456720;28;20033;-54
2021/04/14 19:00:51;;;;;;;8.65;2.13;;;17.30;59.40;;;;;;10475696;28;20032;-53
2021/04/14 19:05:52;;;;;;;9.82;1.80;;;17.30;59.60;;;;;;10471541;28;20033;-53
2021/04/14 19:10:54;;;;;;;7.50;2.10;;;17.30;59.60;;;;;;10448208;28;20029;-54
2021/04/14 19:15:56;;;;;;;10.13;1.88;;;17.30;60.20;;;;;;10486944;28;20388;-54
2021/04/14 19:20:57;;;;;;;4.05;1.92;;;17.30;60.00;;;;;;10489421;28;20090;-55
2021/04/14 19:25:58;;;;;;;8.57;2.53;;;17.40;59.70;;;;;;10488542;28;20036;-53
2021/04/14 19:30:59;;;;;;;6.55;2.15;;;17.40;59.70;;;;;;10470737;28;20028;-55
2021/04/14 19:36:00;;;;;;;7.97;2.10;;;17.30;59.90;;;;;;10494297;28;20025;-53
2021/04/14 19:41:01;;;;;;;8.05;1.80;;;17.30;60.30;;;;;;10494972;28;20083;-54
2021/04/14 19:46:04;;;;;;;5.63;1.60;;;17.30;60.40;;;;;;10495125;28;20065;-53
2021/04/14 19:51:05;;;;;;;7.40;1.83;;;17.30;60.10;;;;;;10495619;28;20032;-53
2021/04/14 19:56:06;;;;;;;5.00;1.73;;;17.40;59.80;;;;;;10497842;28;20029;-54
2021/04/14 20:01:07;;;;;;;8.25;2.38;;;17.30;59.60;;;;;;10493212;28;20044;-54
2021/04/14 20:06:08;;;;;;;5.25;1.52;;;17.40;59.50;;;;;;10500819;28;20029;-52
2021/04/14 20:11:10;;;;;;;6.10;1.75;;;17.40;59.30;;;;;;10501113;28;20040;-53
2021/04/14 20:16:12;;;;;;;3.58;1.23;;;17.40;59.10;;;;;;10482939;28;20074;-49
2021/04/14 20:21:13;;;;;;;6.13;1.20;;;17.40;58.90;;;;;;10500354;28;20111;-51
2021/04/14 20:26:14;;;;;;;3.42;1.20;;;17.50;58.70;;;;;;10501450;28;20439;-54
2021/04/14 20:31:14;;;;;;;2.38;1.02;;;17.40;58.60;;;;;;10484257;28;20025;-53
2021/04/14 20:36:16;;;;;;;4.90;1.73;;;17.40;58.50;;;;;;10501935;28;20024;-50
2021/04/14 20:41:19;;;;;;;10.90;1.85;;;17.50;58.50;;;;;;10501541;28;20484;-52
2021/04/14 20:46:20;;;;;;;2.88;1.13;;;17.50;58.30;;;;;;10484122;28;20036;-54
2021/04/14 20:51:21;;;;;;;3.08;1.02;;;17.50;58.20;;;;;;10501375;28;20413;-52
2021/04/14 20:56:22;;;;;;;4.25;1.25;;;17.50;58.10;;;;;;10483554;28;20032;-54
2021/04/14 21:01:23;;;;;;;3.83;1.10;;;17.50;58.00;;;;;;10483305;28;20481;-54
2021/04/14 21:06:24;;;;;;;3.33;1.17;;;17.50;57.90;;;;;;10500932;28;20028;-53
2021/04/14 21:11:28;;;;;;;3.78;1.13;;;17.50;57.80;;;;;;10500516;28;20036;-54
2021/04/14 21:16:29;;;;;;;2.10;0.88;;;17.50;57.80;;;;;;10499471;28;20059;-53
2021/04/14 21:21:30;;;;;;;1.30;0.80;;;17.50;57.70;;;;;;10500649;28;20514;-54
2021/04/14 21:26:31;;;;;;;1.65;1.08;;;17.50;57.50;;;;;;10500441;28;20097;-54
2021/04/14 21:31:32;;;;;;;1.63;0.70;;;17.50;57.50;;;;;;10499872;28;20424;-53
2021/04/14 21:36:33;;;;;;;2.97;0.80;;;17.50;57.40;;;;;;10499551;28;20032;-54
2021/04/14 21:41:34;;;;;;;1.88;0.85;;;17.50;57.40;;;;;;10476279;28;20492;-53
2021/04/14 21:46:35;;;;;;;5.85;1.05;;;17.50;57.20;;;;;;10499159;28;20384;-55
2021/04/14 21:51:37;;;;;;;2.13;0.57;;;17.50;57.20;;;;;;10498794;28;20025;-54
2021/04/14 21:56:38;;;;;;;1.50;0.55;;;17.50;57.10;;;;;;10499011;28;20035;-54
2021/04/14 22:01:38;;;;;;;3.08;1.02;;;17.50;57.10;;;;;;10498075;28;20024;-55
2021/04/14 22:06:39;;;;;;;3.50;1.02;;;17.50;57.00;;;;;;10498562;28;20054;-54
2021/04/14 22:11:40;;;;;;;5.03;1.17;;;17.50;57.00;;;;;;10498239;28;20040;-54
2021/04/14 22:16:41;;;;;;;2.13;0.90;;;17.50;56.90;;;;;;10496886;28;20024;-54
2021/04/14 22:21:41;;;;;;;2.63;1.15;;;17.50;56.80;;;;;;10497657;28;20099;-54
2021/04/14 22:26:44;;;;;;;3.35;0.70;;;17.50;56.80;;;;;;10497634;28;20039;-55
2021/04/14 22:31:45;;;;;;;3.08;0.88;;;17.50;56.70;;;;;;10497606;28;20036;-54
2021/04/14 22:36:46;;;;;;;3.22;1.15;;;17.60;56.70;;;;;;10497748;28;20099;-53
2021/04/14 22:41:46;;;;;;;3.60;0.65;;;17.50;56.50;;;;;;10497312;28;20048;-54
2021/04/14 22:46:47;;;;;;;2.05;1.02;;;17.50;56.40;;;;;;10497474;28;20035;-54
2021/04/14 22:51:48;;;;;;;1.55;0.60;;;17.60;56.40;;;;;;10496950;28;20465;-54
2021/04/14 22:56:48;;;;;;;4.25;0.80;;;17.60;56.40;;;;;;10497197;28;20455;-53
2021/04/14 23:01:49;;;;;;;3.40;0.82;;;17.60;56.20;;;;;;10496483;28;20519;-54
2021/04/14 23:06:50;;;;;;;2.25;0.85;;;17.60;56.20;;;;;;10497036;28;20048;-54
2021/04/14 23:11:50;;;;;;;2.58;0.60;;;17.60;56.20;;;;;;10496806;28;20029;-54
2021/04/14 23:16:51;;;;;;;1.95;0.63;;;17.60;56.10;;;;;;10496712;28;20092;-54
2021/04/14 23:21:52;;;;;;;2.13;0.40;;;17.60;56.10;;;;;;10496774;28;20054;-51
2021/04/14 23:26:52;;;;;;;1.60;0.60;;;17.50;56.00;;;;;;10496674;28;20380;-53
2021/04/14 23:31:53;;;;;;;2.05;0.50;;;17.50;56.00;;;;;;10496399;28;20124;-53
2021/04/14 23:36:54;;;;;;;1.27;0.52;;;17.60;56.00;;;;;;10496578;28;20159;-54
2021/04/14 23:41:54;;;;;;;4.38;0.75;;;17.60;56.00;;;;;;10504146;28;20124;-54
2021/04/14 23:46:55;;;;;;;1.65;0.65;;;17.50;56.60;;;;;;10504104;28;20040;-54
2021/04/14 23:51:56;;;;;;;2.03;0.60;;;17.60;55.90;;;;;;10485854;28;20025;-53
2021/04/14 23:56:57;;;;;;;1.60;0.65;;;17.50;55.80;;;;;;10503725;28;20031;-54
